sensor_id;sensor_type;location;lat;lon;timestamp;pressure;altitude;pressure_sealevel;temperature;humidity
38852;BME280;24605;50.092;9.182;2024-03-08T00:01:14;152256.44;;;0.75;100.00
38852;BME280;24605;50.092;9.182;2024-03-08T00:03:42;152213.72;;;0.58;100.00
38852;BME280;24605;50.092;9.182;2024-03-08T00:06:08;152221.50;;;0.61;100.00
38852;BME280;24605;50.092;9.182;2024-03-08T00:08:35;152262.91;;;0.78;100.00
38852;BME280;24605;50.092;9.182;2024-03-08T00:11:02;152246.06;;;0.71;100.00
38852;BME280;24605;50.092;9.182;2024-03-08T00:13:30;152198.22;;;0.52;100.00
38852;BME280;24605;50.092;9.182;2024-03-08T00:15:56;152239.59;;;0.69;100.00
38852;BME280;24605;50.092;9.182;2024-03-08T00:18:23;152239.59;;;0.69;100.00
38852;BME280;24605;50.092;9.182;2024-03-08T00:20:50;152222.78;;;0.62;100.00
38852;BME280;24605;50.092;9.182;2024-03-08T00:23:17;152212.47;;;0.58;100.00
38852;BME280;24605;50.092;9.182;2024-03-08T00:25:43;152186.56;;;0.47;100.00
38852;BME280;24605;50.092;9.182;2024-03-08T00:28:10;152178.81;;;0.44;100.00
38852;BME280;24605;50.092;9.182;2024-03-08T00:30:40;152182.72;;;0.46;100.00
38852;BME280;24605;50.092;9.182;2024-03-08T00:33:08;152173.66;;;0.42;100.00
38852;BME280;24605;50.092;9.182;2024-03-08T00:35:34;152145.19;;;0.31;100.00
38852;BME280;24605;50.092;9.182;2024-03-08T00:38:01;152147.78;;;0.32;100.00
38852;BME280;24605;50.092;9.182;2024-03-08T00:40:27;152147.78;;;0.32;100.00
38852;BME280;24605;50.092;9.182;2024-03-08T00:42:54;152151.66;;;0.34;100.00
38852;BME280;24605;50.092;9.182;2024-03-08T00:45:21;152154.25;;;0.35;100.00
38852;BME280;24605;50.092;9.182;2024-03-08T00:47:50;152143.94;;;0.30;100.00
38852;BME280;24605;50.092;9.182;2024-03-08T00:50:16;152151.66;;;0.34;100.00
38852;BME280;24605;50.092;9.182;2024-03-08T00:52:44;152155.56;;;0.35;100.00
38852;BME280;24605;50.092;9.182;2024-03-08T00:55:12;152158.09;;;0.36;100.00
38852;BME280;24605;50.092;9.182;2024-03-08T00:57:38;152123.19;;;0.22;100.00
38852;BME280;24605;50.092;9.182;2024-03-08T01:00:06;152134.81;;;0.27;100.00
38852;BME280;24605;50.092;9.182;2024-03-08T01:02:40;152156.84;;;0.36;100.00
38852;BME280;24605;50.092;9.182;2024-03-08T01:05:08;152084.41;;;0.07;100.00
38852;BME280;24605;50.092;9.182;2024-03-08T01:07:35;152127.09;;;0.24;100.00
38852;BME280;24605;50.092;9.182;2024-03-08T01:10:01;152118.03;;;0.20;100.00
38852;BME280;24605;50.092;9.182;2024-03-08T01:12:28;152127.09;;;0.24;100.00
38852;BME280;24605;50.092;9.182;2024-03-08T01:14:55;152094.78;;;0.11;100.00
38852;BME280;24605;50.092;9.182;2024-03-08T01:17:22;152119.31;;;0.21;100.00
38852;BME280;24605;50.092;9.182;2024-03-08T01:19:49;152109.00;;;0.17;100.00
38852;BME280;24605;50.092;9.182;2024-03-08T01:22:18;152098.63;;;0.12;100.00
38852;BME280;24605;50.092;9.182;2024-03-08T01:24:44;152087.00;;;0.08;100.00
38852;BME280;24605;50.092;9.182;2024-03-08T01:27:11;152107.69;;;0.16;100.00
38852;BME280;24605;50.092;9.182;2024-03-08T01:29:38;152114.13;;;0.19;100.00
38852;BME280;24605;50.092;9.182;2024-03-08T01:32:05;152121.91;;;0.22;100.00
38852;BME280;24605;50.092;9.182;2024-03-08T01:34:32;152110.28;;;0.17;100.00
38852;BME280;24605;50.092;9.182;2024-03-08T01:36:58;152114.13;;;0.19;100.00
38852;BME280;24605;50.092;9.182;2024-03-08T01:39:27;152168.47;;;0.40;100.00
38852;BME280;24605;50.092;9.182;2024-03-08T01:41:54;152183.97;;;0.46;100.00
38852;BME280;24605;50.092;9.182;2024-03-08T01:44:20;152204.69;;;0.55;100.00
38852;BME280;24605;50.092;9.182;2024-03-08T01:46:47;152191.75;;;0.50;100.00
38852;BME280;24605;50.092;9.182;2024-03-08T01:49:15;152151.66;;;0.34;100.00
38852;BME280;24605;50.092;9.182;2024-03-08T01:51:44;152151.66;;;0.34;100.00
38852;BME280;24605;50.092;9.182;2024-03-08T01:54:11;152141.31;;;0.29;100.00
38852;BME280;24605;50.092;9.182;2024-03-08T01:56:39;152134.81;;;0.27;100.00
38852;BME280;24605;50.092;9.182;2024-03-08T01:59:07;152087.00;;;0.08;100.00
38852;BME280;24605;50.092;9.182;2024-03-08T02:01:34;152046.91;;;-0.08;100.00
38852;BME280;24605;50.092;9.182;2024-03-08T02:04:01;152077.94;;;0.04;100.00
38852;BME280;24605;50.092;9.182;2024-03-08T02:06:27;152071.50;;;0.02;100.00
38852;BME280;24605;50.092;9.182;2024-03-08T02:08:55;152062.44;;;-0.02;100.00
38852;BME280;24605;50.092;9.182;2024-03-08T02:11:21;152062.44;;;-0.02;100.00
38852;BME280;24605;50.092;9.182;2024-03-08T02:13:49;152030.13;;;-0.15;100.00
38852;BME280;24605;50.092;9.182;2024-03-08T02:16:20;152040.44;;;-0.11;100.00
38852;BME280;24605;50.092;9.182;2024-03-08T02:18:47;151975.81;;;-0.37;100.00
38852;BME280;24605;50.092;9.182;2024-03-08T02:21:17;151966.75;;;-0.40;100.00
38852;BME280;24605;50.092;9.182;2024-03-08T02:23:44;151995.22;;;-0.29;100.00
38852;BME280;24605;50.092;9.182;2024-03-08T02:26:11;151978.41;;;-0.36;100.00
38852;BME280;24605;50.092;9.182;2024-03-08T02:28:38;151970.63;;;-0.39;100.00
38852;BME280;24605;50.092;9.182;2024-03-08T02:31:08;151977.13;;;-0.36;100.00
38852;BME280;24605;50.092;9.182;2024-03-08T02:33:35;151886.66;;;-0.72;100.00
38852;BME280;24605;50.092;9.182;2024-03-08T02:36:01;151913.78;;;-0.61;100.00
38852;BME280;24605;50.092;9.182;2024-03-08T02:38:29;151940.91;;;-0.51;100.00
38852;BME280;24605;50.092;9.182;2024-03-08T02:40:56;151926.69;;;-0.56;100.00
38852;BME280;24605;50.092;9.182;2024-03-08T02:43:23;151886.66;;;-0.72;100.00
38852;BME280;24605;50.092;9.182;2024-03-08T02:45:50;151871.09;;;-0.79;100.00
38852;BME280;24605;50.092;9.182;2024-03-08T02:48:18;151894.38;;;-0.69;100.00
38852;BME280;24605;50.092;9.182;2024-03-08T02:50:45;151863.38;;;-0.82;100.00
38852;BME280;24605;50.092;9.182;2024-03-08T02:53:12;151856.94;;;-0.84;100.00
38852;BME280;24605;50.092;9.182;2024-03-08T02:55:41;151858.22;;;-0.84;100.00
38852;BME280;24605;50.092;9.182;2024-03-08T02:58:08;151819.47;;;-0.99;100.00
38852;BME280;24605;50.092;9.182;2024-03-08T03:00:35;151806.50;;;-1.04;100.00
38852;BME280;24605;50.092;9.182;2024-03-08T03:03:02;151780.72;;;-1.15;100.00
38852;BME280;24605;50.092;9.182;2024-03-08T03:05:29;151678.66;;;-1.55;100.00
38852;BME280;24605;50.092;9.182;2024-03-08T03:07:56;151760.00;;;-1.23;100.00
38852;BME280;24605;50.092;9.182;2024-03-08T03:10:23;151744.50;;;-1.29;100.00
38852;BME280;24605;50.092;9.182;2024-03-08T03:12:52;151763.91;;;-1.21;100.00
38852;BME280;24605;50.092;9.182;2024-03-08T03:15:19;151788.44;;;-1.12;100.00
38852;BME280;24605;50.092;9.182;2024-03-08T03:17:46;151765.19;;;-1.21;100.00
38852;BME280;24605;50.092;9.182;2024-03-08T03:20:14;151721.25;;;-1.38;100.00
38852;BME280;24605;50.092;9.182;2024-03-08T03:22:48;151772.94;;;-1.18;100.00
38852;BME280;24605;50.092;9.182;2024-03-08T03:25:18;151816.88;;;-1.00;100.00
38852;BME280;24605;50.092;9.182;2024-03-08T03:27:49;151829.78;;;-0.95;100.00
38852;BME280;24605;50.092;9.182;2024-03-08T03:30:17;151841.41;;;-0.90;100.00
38852;BME280;24605;50.092;9.182;2024-03-08T03:32:47;151803.91;;;-1.05;100.00
38852;BME280;24605;50.092;9.182;2024-03-08T03:35:15;151824.63;;;-0.97;100.00
38852;BME280;24605;50.092;9.182;2024-03-08T03:37:41;151829.78;;;-0.95;100.00
38852;BME280;24605;50.092;9.182;2024-03-08T03:40:12;151829.78;;;-0.95;100.00
38852;BME280;24605;50.092;9.182;2024-03-08T03:42:39;151819.47;;;-0.99;100.00
38852;BME280;24605;50.092;9.182;2024-03-08T03:45:06;151838.81;;;-0.91;100.00
38852;BME280;24605;50.092;9.182;2024-03-08T03:47:35;151872.44;;;-0.78;100.00
38852;BME280;24605;50.092;9.182;2024-03-08T03:50:04;151862.06;;;-0.82;100.00
38852;BME280;24605;50.092;9.182;2024-03-08T03:52:31;151816.88;;;-1.00;100.00
38852;BME280;24605;50.092;9.182;2024-03-08T03:54:58;151840.13;;;-0.91;100.00
38852;BME280;24605;50.092;9.182;2024-03-08T03:57:24;151796.19;;;-1.08;100.00
38852;BME280;24605;50.092;9.182;2024-03-08T03:59:51;151798.78;;;-1.07;100.00
38852;BME280;24605;50.092;9.182;2024-03-08T04:02:18;151827.19;;;-0.96;100.00
38852;BME280;24605;50.092;9.182;2024-03-08T04:04:47;151828.50;;;-0.96;100.00
38852;BME280;24605;50.092;9.182;2024-03-08T04:07:14;151815.56;;;-1.01;100.00
38852;BME280;24605;50.092;9.182;2024-03-08T04:09:42;151833.69;;;-0.93;100.00
38852;BME280;24605;50.092;9.182;2024-03-08T04:12:09;151825.91;;;-0.97;100.00
38852;BME280;24605;50.092;9.182;2024-03-08T04:14:36;151806.50;;;-1.04;100.00
38852;BME280;24605;50.092;9.182;2024-03-08T04:17:02;151800.06;;;-1.07;100.00
38852;BME280;24605;50.092;9.182;2024-03-08T04:19:29;151770.34;;;-1.19;100.00
38852;BME280;24605;50.092;9.182;2024-03-08T04:21:57;151753.56;;;-1.26;100.00
38852;BME280;24605;50.092;9.182;2024-03-08T04:24:23;151816.88;;;-1.00;100.00
38852;BME280;24605;50.092;9.182;2024-03-08T04:26:50;151791.03;;;-1.11;100.00
38852;BME280;24605;50.092;9.182;2024-03-08T04:29:17;151789.75;;;-1.11;100.00
38852;BME280;24605;50.092;9.182;2024-03-08T04:31:43;151811.69;;;-1.02;100.00
38852;BME280;24605;50.092;9.182;2024-03-08T04:34:10;151828.50;;;-0.96;100.00
38852;BME280;24605;50.092;9.182;2024-03-08T04:36:37;151842.72;;;-0.90;100.00
38852;BME280;24605;50.092;9.182;2024-03-08T04:39:05;151841.41;;;-0.90;100.00
38852;BME280;24605;50.092;9.182;2024-03-08T04:41:37;151840.13;;;-0.91;100.00
38852;BME280;24605;50.092;9.182;2024-03-08T04:44:04;151862.06;;;-0.82;100.00
38852;BME280;24605;50.092;9.182;2024-03-08T04:46:31;151859.47;;;-0.83;100.00
38852;BME280;24605;50.092;9.182;2024-03-08T04:48:57;151833.69;;;-0.93;100.00
38852;BME280;24605;50.092;9.182;2024-03-08T04:51:25;151863.38;;;-0.82;100.00
38852;BME280;24605;50.092;9.182;2024-03-08T04:53:52;151810.41;;;-1.03;100.00
38852;BME280;24605;50.092;9.182;2024-03-08T04:56:20;151813.00;;;-1.02;100.00
38852;BME280;24605;50.092;9.182;2024-03-08T04:58:46;151800.06;;;-1.07;100.00
38852;BME280;24605;50.092;9.182;2024-03-08T05:01:13;151753.56;;;-1.26;100.00
38852;BME280;24605;50.092;9.182;2024-03-08T05:03:40;151760.00;;;-1.23;100.00
38852;BME280;24605;50.092;9.182;2024-03-08T05:06:06;151791.03;;;-1.11;100.00
38852;BME280;24605;50.092;9.182;2024-03-08T05:08:33;151775.53;;;-1.17;100.00
38852;BME280;24605;50.092;9.182;2024-03-08T05:11:00;151776.81;;;-1.16;100.00
38852;BME280;24605;50.092;9.182;2024-03-08T05:13:30;151797.47;;;-1.08;100.00
38852;BME280;24605;50.092;9.182;2024-03-08T05:15:57;151798.78;;;-1.07;100.00
38852;BME280;24605;50.092;9.182;2024-03-08T05:18:24;151807.81;;;-1.04;100.00
38852;BME280;24605;50.092;9.182;2024-03-08T05:20:51;151820.72;;;-0.99;100.00
38852;BME280;24605;50.092;9.182;2024-03-08T05:23:18;151837.53;;;-0.92;100.00
38852;BME280;24605;50.092;9.182;2024-03-08T05:25:46;151811.69;;;-1.02;100.00
38852;BME280;24605;50.092;9.182;2024-03-08T05:28:13;151853.03;;;-0.86;100.00
38852;BME280;24605;50.092;9.182;2024-03-08T05:30:41;151851.75;;;-0.86;100.00
38852;BME280;24605;50.092;9.182;2024-03-08T05:33:07;151772.94;;;-1.18;100.00
38852;BME280;24605;50.092;9.182;2024-03-08T05:35:35;151850.44;;;-0.87;100.00
38852;BME280;24605;50.092;9.182;2024-03-08T05:38:02;151783.25;;;-1.14;100.00
38852;BME280;24605;50.092;9.182;2024-03-08T05:40:29;151822.03;;;-0.98;100.00
38852;BME280;24605;50.092;9.182;2024-03-08T05:42:57;151816.88;;;-1.00;100.00
38852;BME280;24605;50.092;9.182;2024-03-08T05:45:23;151847.84;;;-0.88;100.00
38852;BME280;24605;50.092;9.182;2024-03-08T05:47:52;151833.69;;;-0.93;100.00
38852;BME280;24605;50.092;9.182;2024-03-08T05:50:18;151836.22;;;-0.92;100.00
38852;BME280;24605;50.092;9.182;2024-03-08T05:52:45;151856.94;;;-0.84;100.00
38852;BME280;24605;50.092;9.182;2024-03-08T05:55:12;151841.41;;;-0.90;100.00
38852;BME280;24605;50.092;9.182;2024-03-08T05:57:39;151834.94;;;-0.93;100.00
38852;BME280;24605;50.092;9.182;2024-03-08T06:00:08;151858.22;;;-0.84;100.00
38852;BME280;24605;50.092;9.182;2024-03-08T06:02:36;151885.31;;;-0.73;100.00
38852;BME280;24605;50.092;9.182;2024-03-08T06:05:08;151878.88;;;-0.75;100.00
38852;BME280;24605;50.092;9.182;2024-03-08T06:07:35;151887.91;;;-0.72;100.00
38852;BME280;24605;50.092;9.182;2024-03-08T06:10:01;151909.91;;;-0.63;100.00
38852;BME280;24605;50.092;9.182;2024-03-08T06:12:28;151918.94;;;-0.59;100.00
38852;BME280;24605;50.092;9.182;2024-03-08T06:14:58;151931.84;;;-0.54;100.00
38852;BME280;24605;50.092;9.182;2024-03-08T06:17:25;151943.50;;;-0.50;100.00
38852;BME280;24605;50.092;9.182;2024-03-08T06:19:52;151956.44;;;-0.44;100.00
38852;BME280;24605;50.092;9.182;2024-03-08T06:22:21;151962.91;;;-0.42;100.00
38852;BME280;24605;50.092;9.182;2024-03-08T06:24:47;151977.13;;;-0.36;100.00
38852;BME280;24605;50.092;9.182;2024-03-08T06:27:14;151988.75;;;-0.32;100.00
38852;BME280;24605;50.092;9.182;2024-03-08T06:29:40;152001.66;;;-0.26;100.00
38852;BME280;24605;50.092;9.182;2024-03-08T06:32:07;152031.41;;;-0.14;100.00
38852;BME280;24605;50.092;9.182;2024-03-08T06:34:34;152033.97;;;-0.13;100.00
38852;BME280;24605;50.092;9.182;2024-03-08T06:37:00;151991.31;;;-0.30;100.00
38852;BME280;24605;50.092;9.182;2024-03-08T06:39:28;152008.13;;;-0.24;100.00
38852;BME280;24605;50.092;9.182;2024-03-08T06:41:57;152044.34;;;-0.09;100.00
38852;BME280;24605;50.092;9.182;2024-03-08T06:44:23;152041.75;;;-0.10;100.00
38852;BME280;24605;50.092;9.182;2024-03-08T06:46:51;152059.84;;;-0.03;100.00
38852;BME280;24605;50.092;9.182;2024-03-08T06:49:17;152083.13;;;0.06;100.00
38852;BME280;24605;50.092;9.182;2024-03-08T06:51:44;152062.44;;;-0.02;100.00
38852;BME280;24605;50.092;9.182;2024-03-08T06:54:11;152088.31;;;0.08;100.00
38852;BME280;24605;50.092;9.182;2024-03-08T06:56:39;152079.22;;;0.05;100.00
38852;BME280;24605;50.092;9.182;2024-03-08T06:59:06;152085.72;;;0.07;100.00
38852;BME280;24605;50.092;9.182;2024-03-08T07:01:35;152115.47;;;0.19;100.00
38852;BME280;24605;50.092;9.182;2024-03-08T07:04:03;152127.09;;;0.24;100.00
38852;BME280;24605;50.092;9.182;2024-03-08T07:06:31;152143.94;;;0.30;100.00
38852;BME280;24605;50.092;9.182;2024-03-08T07:08:59;152159.44;;;0.37;100.00
38852;BME280;24605;50.092;9.182;2024-03-08T07:11:26;152171.06;;;0.41;100.00
38852;BME280;24605;50.092;9.182;2024-03-08T07:13:55;152167.16;;;0.40;100.00
38852;BME280;24605;50.092;9.182;2024-03-08T07:16:23;152196.94;;;0.52;100.00
38852;BME280;24605;50.092;9.182;2024-03-08T07:18:49;152211.13;;;0.57;100.00
38852;BME280;24605;50.092;9.182;2024-03-08T07:21:18;152237.03;;;0.68;100.00
38852;BME280;24605;50.092;9.182;2024-03-08T07:23:45;152251.25;;;0.73;100.00
38852;BME280;24605;50.092;9.182;2024-03-08T07:26:34;152266.78;;;0.80;100.00
38852;BME280;24605;50.092;9.182;2024-03-08T07:29:03;152279.75;;;0.85;100.00
38852;BME280;24605;50.092;9.182;2024-03-08T07:31:30;152308.22;;;0.96;100.00
38852;BME280;24605;50.092;9.182;2024-03-08T07:34:09;152337.97;;;1.08;100.00
38852;BME280;24605;50.092;9.182;2024-03-08T07:36:36;152366.41;;;1.19;100.00
38852;BME280;24605;50.092;9.182;2024-03-08T07:39:03;152349.63;;;1.13;100.00
38852;BME280;24605;50.092;9.182;2024-03-08T07:41:30;152384.56;;;1.27;100.00
38852;BME280;24605;50.092;9.182;2024-03-08T07:43:59;152415.59;;;1.39;100.00
38852;BME280;24605;50.092;9.182;2024-03-08T07:46:30;152398.81;;;1.32;100.00
38852;BME280;24605;50.092;9.182;2024-03-08T07:48:57;152418.19;;;1.40;100.00
38852;BME280;24605;50.092;9.182;2024-03-08T07:51:23;152359.94;;;1.17;100.00
38852;BME280;24605;50.092;9.182;2024-03-08T07:53:50;152451.88;;;1.53;100.00
38852;BME280;24605;50.092;9.182;2024-03-08T07:56:17;152482.94;;;1.66;100.00
38852;BME280;24605;50.092;9.182;2024-03-08T07:58:44;152501.06;;;1.73;100.00
38852;BME280;24605;50.092;9.182;2024-03-08T08:01:16;152477.75;;;1.64;100.00
38852;BME280;24605;50.092;9.182;2024-03-08T08:03:44;152530.88;;;1.85;100.00
38852;BME280;24605;50.092;9.182;2024-03-08T08:06:10;152532.16;;;1.85;100.00
38852;BME280;24605;50.092;9.182;2024-03-08T08:08:41;152568.38;;;2.00;100.00
38852;BME280;24605;50.092;9.182;2024-03-08T08:11:07;152608.56;;;2.16;100.00
38852;BME280;24605;50.092;9.182;2024-03-08T08:13:35;152604.69;;;2.14;100.00
38852;BME280;24605;50.092;9.182;2024-03-08T08:16:02;152612.44;;;2.17;100.00
38852;BME280;24605;50.092;9.182;2024-03-08T08:18:29;152590.44;;;2.09;100.00
38852;BME280;24605;50.092;9.182;2024-03-08T08:20:57;152673.31;;;2.42;100.00
38852;BME280;24605;50.092;9.182;2024-03-08T08:23:25;152678.50;;;2.44;100.00
38852;BME280;24605;50.092;9.182;2024-03-08T08:25:52;152697.91;;;2.51;100.00
38852;BME280;24605;50.092;9.182;2024-03-08T08:28:18;152694.03;;;2.50;100.00
38852;BME280;24605;50.092;9.182;2024-03-08T08:30:46;152694.03;;;2.50;100.00
38852;BME280;24605;50.092;9.182;2024-03-08T08:33:14;152748.50;;;2.72;100.00
38852;BME280;24605;50.092;9.182;2024-03-08T08:35:40;152784.75;;;2.86;100.00
38852;BME280;24605;50.092;9.182;2024-03-08T08:38:09;152707.03;;;2.55;100.00
38852;BME280;24605;50.092;9.182;2024-03-08T08:40:35;152809.38;;;2.96;100.00
38852;BME280;24605;50.092;9.182;2024-03-08T08:43:02;152827.56;;;3.03;100.00
38852;BME280;24605;50.092;9.182;2024-03-08T08:45:30;152804.22;;;2.94;100.00
38852;BME280;24605;50.092;9.182;2024-03-08T08:47:57;152844.38;;;3.10;100.00
38852;BME280;24605;50.092;9.182;2024-03-08T08:50:25;152902.72;;;3.33;100.00
38852;BME280;24605;50.092;9.182;2024-03-08T08:52:53;152924.78;;;3.42;100.00
38852;BME280;24605;50.092;9.182;2024-03-08T08:55:21;152919.56;;;3.40;100.00
38852;BME280;24605;50.092;9.182;2024-03-08T08:57:50;152918.31;;;3.39;100.00
38852;BME280;24605;50.092;9.182;2024-03-08T09:00:18;152964.94;;;3.58;100.00
38852;BME280;24605;50.092;9.182;2024-03-08T09:02:46;152976.59;;;3.63;100.00
38852;BME280;24605;50.092;9.182;2024-03-08T09:05:13;152963.66;;;3.57;100.00
38852;BME280;24605;50.092;9.182;2024-03-08T09:07:42;153007.75;;;3.75;100.00
38852;BME280;24605;50.092;9.182;2024-03-08T09:10:09;153015.56;;;3.78;100.00
38852;BME280;24605;50.092;9.182;2024-03-08T09:12:38;153031.09;;;3.84;100.00
38852;BME280;24605;50.092;9.182;2024-03-08T09:15:07;153028.50;;;3.83;98.18
38852;BME280;24605;50.092;9.182;2024-03-08T09:17:36;153072.59;;;4.01;98.01
38852;BME280;24605;50.092;9.182;2024-03-08T09:20:06;153094.69;;;4.10;98.94
38852;BME280;24605;50.092;9.182;2024-03-08T09:22:34;153086.88;;;4.06;97.34
38852;BME280;24605;50.092;9.182;2024-03-08T09:25:00;153089.47;;;4.07;97.71
38852;BME280;24605;50.092;9.182;2024-03-08T09:27:27;153129.66;;;4.23;97.80
38852;BME280;24605;50.092;9.182;2024-03-08T09:29:55;153059.66;;;3.96;95.57
38852;BME280;24605;50.092;9.182;2024-03-08T09:32:22;153119.31;;;4.19;95.20
38852;BME280;24605;50.092;9.182;2024-03-08T09:34:49;153114.09;;;4.17;94.84
38852;BME280;24605;50.092;9.182;2024-03-08T09:37:15;153164.69;;;4.37;94.70
38852;BME280;24605;50.092;9.182;2024-03-08T09:39:42;153173.78;;;4.41;93.34
38852;BME280;24605;50.092;9.182;2024-03-08T09:42:09;153101.16;;;4.12;92.73
38852;BME280;24605;50.092;9.182;2024-03-08T09:44:43;153185.44;;;4.46;92.25
38852;BME280;24605;50.092;9.182;2024-03-08T09:47:12;153238.69;;;4.67;91.37
38852;BME280;24605;50.092;9.182;2024-03-08T09:49:40;153206.22;;;4.54;91.65
38852;BME280;24605;50.092;9.182;2024-03-08T09:52:08;153280.22;;;4.83;92.36
38852;BME280;24605;50.092;9.182;2024-03-08T09:54:36;153295.78;;;4.90;90.72
38852;BME280;24605;50.092;9.182;2024-03-08T09:57:04;153312.69;;;4.96;91.31
38852;BME280;24605;50.092;9.182;2024-03-08T09:59:31;153334.72;;;5.05;89.67
38852;BME280;24605;50.092;9.182;2024-03-08T10:02:14;153319.16;;;4.99;90.48
38852;BME280;24605;50.092;9.182;2024-03-08T10:04:41;153334.72;;;5.05;89.31
38852;BME280;24605;50.092;9.182;2024-03-08T10:07:09;153345.13;;;5.09;88.37
38852;BME280;24605;50.092;9.182;2024-03-08T10:09:36;153386.66;;;5.26;88.65
38852;BME280;24605;50.092;9.182;2024-03-08T10:12:04;153399.63;;;5.31;88.61
38852;BME280;24605;50.092;9.182;2024-03-08T10:14:31;153404.84;;;5.33;87.61
38852;BME280;24605;50.092;9.182;2024-03-08T10:16:58;153384.06;;;5.25;87.24
38852;BME280;24605;50.092;9.182;2024-03-08T10:19:27;153438.63;;;5.46;87.24
38852;BME280;24605;50.092;9.182;2024-03-08T10:21:55;153443.78;;;5.48;86.50
38852;BME280;24605;50.092;9.182;2024-03-08T10:24:24;153426.94;;;5.42;86.40
38852;BME280;24605;50.092;9.182;2024-03-08T10:26:52;153434.69;;;5.45;86.02
38852;BME280;24605;50.092;9.182;2024-03-08T10:29:19;153456.78;;;5.54;86.44
38852;BME280;24605;50.092;9.182;2024-03-08T10:31:46;153473.66;;;5.60;85.23
38852;BME280;24605;50.092;9.182;2024-03-08T10:34:12;153447.72;;;5.50;86.08
38852;BME280;24605;50.092;9.182;2024-03-08T10:36:41;153455.47;;;5.53;86.58
38852;BME280;24605;50.092;9.182;2024-03-08T10:39:21;153441.19;;;5.47;85.05
38852;BME280;24605;50.092;9.182;2024-03-08T10:41:53;153460.69;;;5.55;84.97
38852;BME280;24605;50.092;9.182;2024-03-08T10:44:40;153459.41;;;5.55;84.26
38852;BME280;24605;50.092;9.182;2024-03-08T10:47:17;153468.50;;;5.58;83.89
38852;BME280;24605;50.092;9.182;2024-03-08T10:49:50;153490.53;;;5.67;85.20
38852;BME280;24605;50.092;9.182;2024-03-08T10:52:21;153515.25;;;5.77;85.12
38852;BME280;24605;50.092;9.182;2024-03-08T10:54:48;153545.13;;;5.89;84.98
38852;BME280;24605;50.092;9.182;2024-03-08T10:57:18;153559.41;;;5.94;84.45
38852;BME280;24605;50.092;9.182;2024-03-08T10:59:47;153556.81;;;5.93;85.01
38852;BME280;24605;50.092;9.182;2024-03-08T11:02:16;153558.09;;;5.94;82.64
38852;BME280;24605;50.092;9.182;2024-03-08T11:04:46;153599.72;;;6.10;83.02
38852;BME280;24605;50.092;9.182;2024-03-08T11:07:14;153641.28;;;6.27;82.78
38852;BME280;24605;50.092;9.182;2024-03-08T11:09:44;153625.69;;;6.21;82.39
38852;BME280;24605;50.092;9.182;2024-03-08T11:12:22;153651.69;;;6.31;80.94
38852;BME280;24605;50.092;9.182;2024-03-08T11:14:52;153637.41;;;6.25;82.27
38852;BME280;24605;50.092;9.182;2024-03-08T11:17:26;153650.38;;;6.31;82.19
38852;BME280;24605;50.092;9.182;2024-03-08T11:20:08;153697.16;;;6.49;81.69
38852;BME280;24605;50.092;9.182;2024-03-08T11:22:41;153715.41;;;6.56;81.89
38852;BME280;24605;50.092;9.182;2024-03-08T11:25:31;153749.16;;;6.70;81.72
38852;BME280;24605;50.092;9.182;2024-03-08T11:28:13;153776.44;;;6.81;81.57
38852;BME280;24605;50.092;9.182;2024-03-08T11:30:43;153745.28;;;6.68;82.85
38852;BME280;24605;50.092;9.182;2024-03-08T11:33:12;153755.66;;;6.72;81.90
38852;BME280;24605;50.092;9.182;2024-03-08T11:35:39;153801.19;;;6.90;82.06
38852;BME280;24605;50.092;9.182;2024-03-08T11:38:07;153786.88;;;6.85;82.09
38852;BME280;24605;50.092;9.182;2024-03-08T11:40:36;153755.66;;;6.72;82.75
38852;BME280;24605;50.092;9.182;2024-03-08T11:43:03;153807.66;;;6.93;80.99
38852;BME280;24605;50.092;9.182;2024-03-08T11:45:32;153820.66;;;6.98;80.29
38852;BME280;24605;50.092;9.182;2024-03-08T11:48:01;153790.75;;;6.86;79.56
38852;BME280;24605;50.092;9.182;2024-03-08T11:50:29;153805.06;;;6.92;79.84
38852;BME280;24605;50.092;9.182;2024-03-08T11:53:00;153841.44;;;7.06;81.56
38852;BME280;24605;50.092;9.182;2024-03-08T11:55:27;153881.78;;;7.22;78.76
38852;BME280;24605;50.092;9.182;2024-03-08T11:58:01;153894.75;;;7.28;80.35
38852;BME280;24605;50.092;9.182;2024-03-08T12:00:28;153896.09;;;7.28;80.08
38852;BME280;24605;50.092;9.182;2024-03-08T12:03:07;153935.09;;;7.44;78.00
38852;BME280;24605;50.092;9.182;2024-03-08T12:05:36;153914.28;;;7.35;77.92
38852;BME280;24605;50.092;9.182;2024-03-08T12:08:04;153923.38;;;7.39;76.69
38852;BME280;24605;50.092;9.182;2024-03-08T12:10:32;153962.38;;;7.55;77.53
38852;BME280;24605;50.092;9.182;2024-03-08T12:13:01;153948.13;;;7.49;78.13
38852;BME280;24605;50.092;9.182;2024-03-08T12:15:29;153929.88;;;7.42;78.91
38852;BME280;24605;50.092;9.182;2024-03-08T12:17:58;153966.31;;;7.56;77.88
38852;BME280;24605;50.092;9.182;2024-03-08T12:20:28;153948.13;;;7.49;77.57
38852;BME280;24605;50.092;9.182;2024-03-08T12:22:56;153965.00;;;7.56;77.28
38852;BME280;24605;50.092;9.182;2024-03-08T12:25:26;154026.13;;;7.80;78.10
38852;BME280;24605;50.092;9.182;2024-03-08T12:27:53;154018.31;;;7.77;77.56
38852;BME280;24605;50.092;9.182;2024-03-08T12:30:25;154007.94;;;7.73;77.73
38852;BME280;24605;50.092;9.182;2024-03-08T12:32:54;154054.78;;;7.91;76.94
38852;BME280;24605;50.092;9.182;2024-03-08T12:35:22;154076.88;;;8.00;76.09
38852;BME280;24605;50.092;9.182;2024-03-08T12:37:50;153955.88;;;7.52;75.57
38852;BME280;24605;50.092;9.182;2024-03-08T12:40:19;154052.16;;;7.90;76.30
38852;BME280;24605;50.092;9.182;2024-03-08T12:42:46;154118.50;;;8.16;75.53
38852;BME280;24605;50.092;9.182;2024-03-08T12:45:14;154127.59;;;8.20;75.85
38852;BME280;24605;50.092;9.182;2024-03-08T12:47:42;154080.81;;;8.02;74.92
38852;BME280;24605;50.092;9.182;2024-03-08T12:50:10;154114.59;;;8.15;73.55
38852;BME280;24605;50.092;9.182;2024-03-08T12:52:37;154151.03;;;8.29;73.35
38852;BME280;24605;50.092;9.182;2024-03-08T12:55:04;154196.66;;;8.48;72.40